createdAt,value
2022-10-07T03:00:53.059Z,2.38
2022-10-07T03:03:23.171Z,2.60
2022-10-07T03:06:05.456Z,3.50
2022-10-07T03:08:34.802Z,3.28
2022-10-07T03:11:03.400Z,2.90
2022-10-07T03:13:32.282Z,4.50
2022-10-07T03:16:05.261Z,3.97
2022-10-07T03:18:34.439Z,2.80
2022-10-07T03:21:19.055Z,3.37
2022-10-07T03:23:53.145Z,4.00
2022-10-07T03:26:23.418Z,5.00
2022-10-07T03:28:51.807Z,4.33
2022-10-07T03:31:22.156Z,3.10
2022-10-07T03:33:52.436Z,2.40
2022-10-07T03:36:21.389Z,2.58
2022-10-07T03:38:49.538Z,2.17
2022-10-07T03:41:20.000Z,1.80
2022-10-07T03:43:51.275Z,1.80
2022-10-07T03:46:24.338Z,2.40
2022-10-07T03:48:53.279Z,2.10
2022-10-07T03:51:21.346Z,2.13
2022-10-07T03:53:49.743Z,1.93
2022-10-07T03:56:18.145Z,2.00
2022-10-07T03:58:46.068Z,2.00
2022-10-07T04:01:15.029Z,3.20
2022-10-07T04:03:55.777Z,2.45
2022-10-07T04:06:25.039Z,2.58
2022-10-07T04:08:53.897Z,2.50
2022-10-07T04:11:22.211Z,2.55
2022-10-07T04:13:52.866Z,3.00
2022-10-07T04:16:23.472Z,2.65
2022-10-07T04:18:57.108Z,3.33
2022-10-07T04:21:27.082Z,3.20
2022-10-07T04:23:54.962Z,3.33
2022-10-07T04:26:24.154Z,2.60
2022-10-07T04:28:52.562Z,3.05
2022-10-07T04:31:23.805Z,2.70
2022-10-07T04:33:59.598Z,2.97
2022-10-07T04:36:33.681Z,4.05
2022-10-07T04:39:14.363Z,3.20
2022-10-07T04:41:48.955Z,4.07
2022-10-07T04:44:21.914Z,2.90
2022-10-07T04:46:56.863Z,3.40
2022-10-07T04:49:28.694Z,4.33
2022-10-07T04:51:58.983Z,4.70
2022-10-07T04:54:31.887Z,5.23
2022-10-07T04:57:00.222Z,4.90
2022-10-07T04:59:30.731Z,4.60
2022-10-07T05:02:00.097Z,3.60
2022-10-07T05:04:33.034Z,4.45
2022-10-07T05:07:01.096Z,3.72
2022-10-07T05:09:30.516Z,3.30
2022-10-07T05:11:58.491Z,4.90
2022-10-07T05:14:26.472Z,3.33
2022-10-07T05:16:56.834Z,3.80
2022-10-07T05:19:28.773Z,3.37
2022-10-07T05:21:58.035Z,2.77
2022-10-07T05:24:27.031Z,3.20
2022-10-07T05:26:54.891Z,3.20
2022-10-07T05:29:24.023Z,2.60
2022-10-07T05:31:54.057Z,3.30
2022-10-07T05:34:25.207Z,2.95
2022-10-07T05:36:54.874Z,3.03
2022-10-07T05:39:24.979Z,2.90
2022-10-07T05:41:58.806Z,3.13
2022-10-07T05:44:32.352Z,2.78
2022-10-07T05:47:02.330Z,2.83
2022-10-07T05:49:30.699Z,2.70
2022-10-07T05:51:59.066Z,2.40
2022-10-07T05:54:28.334Z,2.60
2022-10-07T05:56:58.811Z,2.70
2022-10-07T05:59:27.020Z,2.20
2022-10-07T06:02:00.605Z,2.35
2022-10-07T06:04:29.789Z,2.70
2022-10-07T06:06:57.793Z,2.50
2022-10-07T06:09:43.392Z,2.20
2022-10-07T06:12:34.470Z,2.57
2022-10-07T06:15:07.472Z,2.80
2022-10-07T06:17:35.896Z,2.37
2022-10-07T06:20:08.037Z,2.27
2022-10-07T06:22:36.137Z,2.27
2022-10-07T06:25:04.457Z,2.53
2022-10-07T06:27:36.017Z,2.20
2022-10-07T06:30:05.712Z,2.43
2022-10-07T06:32:33.808Z,2.40
2022-10-07T06:35:02.364Z,2.40
2022-10-07T06:37:32.635Z,2.47
2022-10-07T06:40:01.038Z,2.37
2022-10-07T06:42:33.800Z,2.53
2022-10-07T06:45:20.180Z,2.30
2022-10-07T06:47:50.442Z,2.50
2022-10-07T06:50:18.405Z,2.50
2022-10-07T06:52:46.306Z,2.77
2022-10-07T06:55:14.766Z,2.97
2022-10-07T06:57:46.323Z,3.40
2022-10-07T07:00:18.003Z,3.00
2022-10-07T07:02:46.645Z,2.93
2022-10-07T07:05:16.426Z,2.22
2022-10-07T07:07:46.501Z,2.37
2022-10-07T07:10:14.983Z,1.80
2022-10-07T07:12:48.321Z,2.27
2022-10-07T07:15:16.498Z,2.80
2022-10-07T07:17:44.730Z,2.20
2022-10-07T07:20:14.337Z,2.10
2022-10-07T07:22:43.346Z,2.20
2022-10-07T07:25:11.784Z,2.33
2022-10-07T07:27:40.103Z,2.20
2022-10-07T07:30:13.263Z,2.10
2022-10-07T07:32:43.364Z,2.42
2022-10-07T07:35:11.558Z,2.47
2022-10-07T07:37:39.699Z,2.30
2022-10-07T07:40:09.363Z,2.60
2022-10-07T07:42:37.771Z,2.40
2022-10-07T07:45:08.206Z,2.57
2022-10-07T07:47:37.587Z,2.20
2022-10-07T07:50:07.625Z,2.60
2022-10-07T07:52:36.251Z,2.40
2022-10-07T07:55:07.180Z,2.30
2022-10-07T07:57:36.546Z,2.17
2022-10-07T08:00:08.472Z,2.50
2022-10-07T08:02:43.688Z,2.67
2022-10-07T08:05:21.370Z,2.47
2022-10-07T08:07:52.882Z,2.53
2022-10-07T08:10:21.660Z,2.67
2022-10-07T08:12:49.547Z,2.17
2022-10-07T08:15:17.662Z,1.98
2022-10-07T08:17:47.788Z,2.20
2022-10-07T08:20:16.409Z,2.08
2022-10-07T08:22:45.889Z,2.20
2022-10-07T08:25:16.774Z,2.05
2022-10-07T08:27:45.700Z,2.20
2022-10-07T08:30:14.547Z,2.10
2022-10-07T08:32:42.848Z,1.90
2022-10-07T08:35:12.160Z,2.40
2022-10-07T08:37:40.015Z,2.15
2022-10-07T08:40:08.850Z,2.05
2022-10-07T08:42:39.880Z,2.10
2022-10-07T08:45:13.118Z,2.35
2022-10-07T08:47:44.831Z,1.88
2022-10-07T08:50:20.012Z,1.75
2022-10-07T08:52:51.177Z,1.73
2022-10-07T08:55:26.874Z,1.90
2022-10-07T08:58:09.932Z,2.20
2022-10-07T09:00:46.111Z,2.13
2022-10-07T09:03:25.937Z,1.80
2022-10-07T09:05:57.052Z,2.13
2022-10-07T09:08:29.903Z,2.00
2022-10-07T09:11:15.426Z,1.85
2022-10-07T09:13:48.102Z,2.22
2022-10-07T09:16:22.990Z,1.88
2022-10-07T09:18:54.318Z,1.92
2022-10-07T09:21:28.620Z,1.77
2022-10-07T09:24:02.166Z,2.10
2022-10-07T09:26:30.913Z,1.77
2022-10-07T09:29:00.041Z,1.83
2022-10-07T09:31:27.965Z,1.98
2022-10-07T09:33:56.118Z,2.10
2022-10-07T09:36:26.134Z,1.88
2022-10-07T09:38:54.249Z,1.90
2022-10-07T09:41:31.282Z,1.70
2022-10-07T09:44:06.966Z,1.73
2022-10-07T09:46:48.008Z,1.80
2022-10-07T09:49:37.412Z,1.90
2022-10-07T09:52:15.827Z,1.90
2022-10-07T09:54:44.855Z,1.60
2022-10-07T09:57:30.222Z,1.95
2022-10-07T10:00:26.906Z,1.35
2022-10-07T10:03:04.063Z,1.80
2022-10-07T10:05:35.115Z,1.55
2022-10-07T10:08:07.290Z,1.63
2022-10-07T10:10:36.607Z,1.90
2022-10-07T10:13:06.691Z,1.70
2022-10-07T10:15:41.929Z,1.60
2022-10-07T10:18:28.094Z,1.60
2022-10-07T10:20:56.152Z,1.45
2022-10-07T10:23:29.744Z,1.60
2022-10-07T10:26:32.726Z,1.70
2022-10-07T10:29:11.788Z,1.42
2022-10-07T10:31:55.755Z,1.60
2022-10-07T10:34:38.447Z,1.55
2022-10-07T10:37:14.742Z,1.45
2022-10-07T10:40:03.060Z,1.67
2022-10-07T10:42:44.391Z,1.40
2022-10-07T10:45:35.037Z,1.30
2022-10-07T10:48:29.103Z,1.50
2022-10-07T10:51:10.169Z,1.60
2022-10-07T10:53:49.578Z,1.40
2022-10-07T10:56:36.155Z,1.80
2022-10-07T10:59:24.618Z,1.35
2022-10-07T11:02:01.437Z,1.45
2022-10-07T11:04:45.284Z,1.83
2022-10-07T11:07:21.230Z,1.42
2022-10-07T11:09:52.932Z,1.67
2022-10-07T11:12:26.559Z,1.30
2022-10-07T11:14:58.723Z,1.63
2022-10-07T11:17:35.814Z,1.83
2022-10-07T11:20:14.443Z,1.13
2022-10-07T11:22:47.731Z,1.30
2022-10-07T11:25:26.462Z,1.58
2022-10-07T11:28:00.358Z,1.65
2022-10-07T11:30:36.883Z,1.70
2022-10-07T11:33:12.833Z,1.23
2022-10-07T11:35:48.585Z,1.20
2022-10-07T11:38:20.136Z,1.42
2022-10-07T11:40:51.934Z,1.45
2022-10-07T11:43:28.349Z,1.50
2022-10-07T11:46:07.892Z,1.60
2022-10-07T11:48:44.002Z,1.40
2022-10-07T11:51:23.129Z,1.40
2022-10-07T11:53:55.417Z,1.17
2022-10-07T11:56:25.485Z,1.70
2022-10-07T11:59:03.786Z,1.30
2022-10-07T12:01:55.177Z,1.30
2022-10-07T12:04:35.250Z,1.30
2022-10-07T12:07:35.451Z,1.30
2022-10-07T12:10:31.242Z,1.20
2022-10-07T12:13:20.582Z,1.50
2022-10-07T12:15:50.864Z,1.67
2022-10-07T12:18:28.524Z,1.33
2022-10-07T12:21:09.411Z,1.42
2022-10-07T12:23:42.810Z,1.40
2022-10-07T12:26:53.466Z,1.13
2022-10-07T12:29:50.893Z,1.60
2022-10-07T12:33:00.803Z,1.40
2022-10-07T12:35:42.636Z,1.33
2022-10-07T12:38:19.784Z,1.30
2022-10-07T12:40:52.627Z,1.30
2022-10-07T12:43:31.128Z,1.30
2022-10-07T12:46:00.844Z,1.25
2022-10-07T12:48:34.611Z,1.58
2022-10-07T12:51:06.243Z,1.23
2022-10-07T12:53:42.027Z,1.55
2022-10-07T12:56:18.715Z,1.55
2022-10-07T12:59:35.993Z,1.42
2022-10-07T13:02:43.998Z,1.50
2022-10-07T13:06:12.587Z,1.40
2022-10-07T13:09:20.319Z,1.38
2022-10-07T13:12:27.494Z,1.55
2022-10-07T13:15:06.900Z,1.55
2022-10-07T13:17:47.300Z,1.55
2022-10-07T13:20:32.756Z,1.50
2022-10-07T13:23:07.868Z,1.40
2022-10-07T13:25:44.846Z,1.50
2022-10-07T13:28:16.441Z,1.38
2022-10-07T13:30:47.010Z,1.80
2022-10-07T13:33:30.344Z,1.50
2022-10-07T13:36:14.405Z,1.45
2022-10-07T13:38:42.333Z,1.75
2022-10-07T13:41:25.408Z,1.42
2022-10-07T13:43:56.028Z,1.65
2022-10-07T13:46:28.469Z,1.73
2022-10-07T13:48:57.856Z,1.45
2022-10-07T13:51:35.225Z,1.40
2022-10-07T13:54:05.342Z,1.90
2022-10-07T13:56:36.190Z,1.50
2022-10-07T13:59:06.772Z,1.80
2022-10-07T14:01:40.611Z,1.80
2022-10-07T14:04:22.311Z,1.70
2022-10-07T14:07:09.367Z,1.50
2022-10-07T14:09:46.623Z,2.00
2022-10-07T14:12:19.303Z,1.67
2022-10-07T14:14:49.585Z,1.77
2022-10-07T14:17:33.917Z,1.88
2022-10-07T14:20:05.456Z,1.95
2022-10-07T14:22:38.410Z,1.67
2022-10-07T14:25:17.293Z,1.90
2022-10-07T14:28:17.413Z,1.83
2022-10-07T14:31:04.689Z,1.77
2022-10-07T14:34:05.701Z,1.67
2022-10-07T14:36:36.034Z,1.83
2022-10-07T14:39:22.475Z,1.90
2022-10-07T14:41:54.977Z,1.60
2022-10-07T14:44:23.959Z,1.67
2022-10-07T14:47:03.779Z,1.70
2022-10-07T14:49:33.063Z,1.95
2022-10-07T14:52:02.298Z,2.05
2022-10-07T14:54:30.876Z,1.85
2022-10-07T14:56:58.748Z,1.70
2022-10-07T14:59:26.669Z,1.90
2022-10-07T15:01:54.587Z,1.73
2022-10-07T15:04:22.628Z,1.50
2022-10-07T15:06:52.036Z,1.90
2022-10-07T15:09:20.946Z,1.85
2022-10-07T15:11:48.963Z,1.48
2022-10-07T15:14:18.945Z,1.52
2022-10-07T15:16:46.861Z,2.03
2022-10-07T15:19:15.126Z,1.80
2022-10-07T15:21:43.079Z,1.73
2022-10-07T15:24:12.851Z,1.70
2022-10-07T15:26:41.320Z,1.80
2022-10-07T15:29:09.184Z,1.80
2022-10-07T15:31:37.988Z,1.80
2022-10-07T15:34:05.876Z,1.95
2022-10-07T15:36:33.766Z,1.80
2022-10-07T15:39:02.198Z,1.77
2022-10-07T15:41:33.875Z,1.58
2022-10-07T15:44:04.346Z,1.77
2022-10-07T15:46:32.481Z,1.88
2022-10-07T15:49:00.818Z,2.05
2022-10-07T15:51:29.439Z,1.77
2022-10-07T15:53:57.341Z,1.90
2022-10-07T15:56:26.295Z,1.90
2022-10-07T15:58:58.449Z,1.90
2022-10-07T16:01:26.495Z,2.05
2022-10-07T16:03:54.624Z,2.22
2022-10-07T16:06:23.915Z,2.38
2022-10-07T16:08:54.539Z,2.17
2022-10-07T16:11:23.188Z,1.98
2022-10-07T16:13:51.468Z,2.10
2022-10-07T16:16:22.682Z,2.20
2022-10-07T16:18:52.624Z,2.20
2022-10-07T16:21:22.780Z,1.88
2022-10-07T16:23:51.894Z,1.98
2022-10-07T16:26:22.422Z,1.90
2022-10-07T16:29:10.236Z,1.75
2022-10-07T16:31:41.504Z,1.80
2022-10-07T16:34:10.997Z,2.00
2022-10-07T16:36:44.713Z,1.73
2022-10-07T16:39:13.694Z,1.70
2022-10-07T16:41:41.831Z,2.10
2022-10-07T16:44:10.189Z,2.17
2022-10-07T16:46:39.777Z,2.55
2022-10-07T16:49:09.358Z,2.30
2022-10-07T16:51:38.627Z,2.38
2022-10-07T16:54:12.667Z,2.38
2022-10-07T16:56:42.220Z,2.25
2022-10-07T16:59:12.944Z,2.40
2022-10-07T17:01:42.254Z,3.35
2022-10-07T17:04:10.960Z,2.65
2022-10-07T17:06:39.017Z,2.70
2022-10-07T17:09:07.127Z,3.17
2022-10-07T17:11:36.536Z,3.33
2022-10-07T17:14:06.071Z,2.78
2022-10-07T17:16:36.424Z,2.50
2022-10-07T17:19:06.963Z,2.50
2022-10-07T17:21:36.022Z,2.60
2022-10-07T17:24:04.681Z,2.95
2022-10-07T17:26:33.367Z,2.65
2022-10-07T17:29:03.472Z,2.70
2022-10-07T17:31:32.239Z,2.63
2022-10-07T17:34:01.128Z,2.45
2022-10-07T17:36:31.043Z,2.80
2022-10-07T17:38:59.514Z,2.88
2022-10-07T17:41:28.721Z,2.58
2022-10-07T17:43:59.015Z,3.00
2022-10-07T17:46:28.900Z,4.07
2022-10-07T17:48:58.366Z,4.75
2022-10-07T17:51:28.967Z,3.72
2022-10-07T17:53:59.510Z,3.28
2022-10-07T17:56:29.156Z,3.40
2022-10-07T17:58:57.794Z,3.60
2022-10-07T18:01:27.745Z,3.75
2022-10-07T18:03:57.904Z,7.60
2022-10-07T18:06:26.630Z,8.00
2022-10-07T18:08:54.975Z,6.25
2022-10-07T18:11:44.628Z,6.00
2022-10-07T18:14:30.419Z,4.70
2022-10-07T18:16:58.572Z,4.68
2022-10-07T18:19:27.473Z,4.80
2022-10-07T18:21:56.477Z,5.60
2022-10-07T18:24:27.369Z,5.45
2022-10-07T18:26:58.566Z,7.55
2022-10-07T18:29:26.472Z,6.30
2022-10-07T18:31:54.467Z,5.90
2022-10-07T18:34:22.471Z,6.57
2022-10-07T18:36:55.259Z,6.80
2022-10-07T18:39:24.379Z,9.05
2022-10-07T18:41:52.745Z,6.32
2022-10-07T18:44:21.960Z,6.55
2022-10-07T18:46:50.033Z,7.15
2022-10-07T18:49:17.894Z,6.95
2022-10-07T18:51:47.126Z,7.07
2022-10-07T18:54:15.210Z,6.43
2022-10-07T18:56:43.095Z,5.70
2022-10-07T18:59:13.107Z,6.85
2022-10-07T19:01:44.359Z,18.45
2022-10-07T19:04:15.751Z,11.40
2022-10-07T19:06:45.878Z,8.30
2022-10-07T19:09:15.874Z,9.70
2022-10-07T19:11:44.291Z,9.10
2022-10-07T19:14:11.638Z,7.38
2022-10-07T19:16:42.708Z,6.43
2022-10-07T19:19:13.767Z,5.28
2022-10-07T19:21:41.816Z,5.80
2022-10-07T19:24:09.916Z,5.15
2022-10-07T19:26:43.230Z,6.90
2022-10-07T19:29:13.196Z,6.88
2022-10-07T19:31:44.766Z,6.15
2022-10-07T19:34:14.746Z,6.10
2022-10-07T19:36:46.858Z,6.45
2022-10-07T19:39:16.237Z,6.07
2022-10-07T19:41:44.467Z,5.57
2022-10-07T19:44:13.362Z,4.63
2022-10-07T19:46:42.782Z,4.25
2022-10-07T19:49:11.917Z,4.38
2022-10-07T19:51:41.787Z,4.35
2022-10-07T19:54:10.584Z,5.88
2022-10-07T19:56:39.792Z,5.60
2022-10-07T19:59:09.838Z,5.10
2022-10-07T20:01:41.340Z,5.47
2022-10-07T20:04:14.077Z,5.55
2022-10-07T20:06:42.698Z,5.00
2022-10-07T20:09:13.244Z,5.00
2022-10-07T20:11:41.411Z,5.03
2022-10-07T20:14:10.026Z,4.95
2022-10-07T20:16:39.421Z,5.22
2022-10-07T20:19:09.337Z,4.85
2022-10-07T20:21:40.222Z,5.35
2022-10-07T20:24:10.024Z,4.95
2022-10-07T20:26:39.264Z,5.05
2022-10-07T20:29:09.947Z,5.22
2022-10-07T20:31:40.077Z,5.40
2022-10-07T20:34:11.009Z,5.70
2022-10-07T20:36:41.271Z,5.57
2022-10-07T20:39:32.557Z,5.43
2022-10-07T20:42:17.966Z,5.38
2022-10-07T20:44:47.454Z,5.88
2022-10-07T20:47:15.460Z,6.10
2022-10-07T20:49:43.508Z,6.13
2022-10-07T20:52:17.129Z,5.78
2022-10-07T20:54:45.546Z,5.20
2022-10-07T20:57:15.778Z,5.20
2022-10-07T20:59:43.985Z,5.13
2022-10-07T21:02:13.467Z,5.65
2022-10-07T21:04:41.460Z,4.97
2022-10-07T21:07:10.338Z,5.25
2022-10-07T21:09:39.919Z,5.22
2022-10-07T21:12:13.493Z,5.10
2022-10-07T21:14:42.938Z,5.10
2022-10-07T21:17:11.310Z,4.15
2022-10-07T21:19:39.967Z,4.10
2022-10-07T21:22:08.368Z,4.95
2022-10-07T21:24:36.273Z,4.82
2022-10-07T21:27:07.531Z,4.35
2022-10-07T21:29:40.479Z,4.32
2022-10-07T21:32:09.241Z,4.05
2022-10-07T21:34:37.152Z,4.13
2022-10-07T21:37:05.058Z,3.83
2022-10-07T21:39:32.896Z,3.33
2022-10-07T21:42:01.742Z,3.30
2022-10-07T21:44:33.170Z,3.30
2022-10-07T21:47:01.101Z,3.33
2022-10-07T21:49:28.996Z,3.50
2022-10-07T21:51:56.816Z,3.30
2022-10-07T21:54:24.638Z,3.40
2022-10-07T21:56:52.459Z,4.00
2022-10-07T21:59:20.732Z,4.30
